| time (UTC) | temp F | wind direction | speed MPH | gust MPH | rain 1hr in | rain 24hr in | rain mn in | humidity % | barometer mb |
| 20260505193502 | 52 | 243 | 4.0 | 16.0 | 0.02 | 0.33 | 0.33 | 82 | 1019.0 |
| 20260505193002 | 51 | 166 | 4.0 | 10.0 | 0.04 | 0.33 | 0.33 | 86 | 1019.0 |
| 20260505192506 | 50 | 182 | 2.0 | 14.0 | 0.06 | 0.33 | 0.33 | 87 | 1019.1 |
| 20260505192004 | 50 | 293 | 1.0 | 9.0 | 0.07 | 0.33 | 0.33 | 90 | 1019.2 |
| 20260505191506 | 49 | 236 | 3.0 | 16.0 | 0.08 | 0.33 | 0.33 | 91 | 1019.4 |
| 20260505191005 | 49 | 228 | 5.0 | 16.0 | 0.08 | 0.33 | 0.33 | 93 | 1019.4 |
| 20260505190503 | 48 | 214 | 2.0 | 13.0 | 0.08 | 0.33 | 0.33 | 93 | 1019.4 |
| 20260505190005 | 47 | 252 | 4.0 | 9.0 | 0.09 | 0.33 | 0.33 | 94 | 1019.5 |
| 20260505185502 | 46 | 245 | 3.0 | 11.0 | 0.09 | 0.33 | 0.33 | 93 | 1019.6 |
| 20260505185002 | 46 | 299 | 5.0 | 13.0 | 0.09 | 0.33 | 0.33 | 93 | 1019.6 |
| 20260505184504 | 45 | 227 | 2.0 | 13.0 | 0.09 | 0.33 | 0.33 | 93 | 1019.5 |
| 20260505184003 | 45 | 288 | 2.0 | 9.0 | 0.08 | 0.32 | 0.32 | 93 | 1019.5 |
| 20260505183503 | 45 | 269 | 3.0 | 10.0 | 0.08 | 0.31 | 0.31 | 92 | 1019.5 |
| 20260505183008 | 45 | 199 | 4.0 | 10.0 | 0.06 | 0.28 | 0.28 | 92 | 1019.4 |
| 20260505182507 | 45 | 236 | 4.0 | 10.0 | 0.04 | 0.27 | 0.27 | 92 | 1019.6 |
| 20260505182003 | 45 | 317 | 4.0 | 11.0 | 0.03 | 0.26 | 0.26 | 92 | 1019.4 |
| 20260505181504 | 46 | 211 | 3.0 | 13.0 | 0.02 | 0.25 | 0.25 | 92 | 1019.3 |
| 20260505181003 | 46 | 270 | 7.0 | 13.0 | 0.02 | 0.25 | 0.25 | 92 | 1019.3 |
| 20260505180506 | 46 | 221 | 5.0 | 11.0 | 0.02 | 0.25 | 0.25 | 91 | 1019.2 |
| 20260505180005 | 46 | 214 | 4.0 | 15.0 | 0.01 | 0.24 | 0.24 | 91 | 1019.2 |
| 20260505175502 | 46 | 226 | 3.0 | 17.0 | 0.01 | 0.24 | 0.24 | 91 | 1019.3 |
| 20260505175003 | 46 | 235 | 5.0 | 11.0 | 0.01 | 0.24 | 0.24 | 91 | 1019.3 |
| 20260505174504 | 46 | 275 | 4.0 | 10.0 | 0.01 | 0.24 | 0.24 | 91 | 1019.2 |
| 20260505174004 | 46 | 251 | 4.0 | 12.0 | 0.01 | 0.24 | 0.24 | 91 | 1019.2 |
| 20260505173502 | 46 | 197 | 5.0 | 14.0 | 0.00 | 0.23 | 0.23 | 90 | 1019.2 |
| 20260505173011 | 46 | 218 | 6.0 | 14.0 | 0.00 | 0.23 | 0.23 | 90 | 1019.1 |
| 20260505172504 | 46 | 253 | 7.0 | 13.0 | 0.00 | 0.23 | 0.23 | 89 | 1019.2 |
| 20260505172003 | 47 | 263 | 5.0 | 12.0 | 0.00 | 0.23 | 0.23 | 88 | 1019.2 |
| 20260505171506 | 47 | 228 | 5.0 | 12.0 | 0.00 | 0.23 | 0.23 | 89 | 1018.9 |
| 20260505171004 | 48 | 270 | 5.0 | 12.0 | 0.00 | 0.23 | 0.23 | 89 | 1018.8 |
| 20260505170505 | 48 | 218 | 3.0 | 12.0 | 0.00 | 0.23 | 0.23 | 89 | 1018.8 |
| 20260505170007 | 48 | 217 | 4.0 | 10.0 | 0.00 | 0.23 | 0.23 | 89 | 1018.8 |
| 20260505165503 | 47 | 233 | 4.0 | 10.0 | 0.00 | 0.23 | 0.23 | 89 | 1018.8 |
| 20260505165003 | 47 | 198 | 4.0 | 10.0 | 0.00 | 0.23 | 0.23 | 89 | 1018.8 |
| 20260505164504 | 47 | 242 | 4.0 | 10.0 | 0.00 | 0.23 | 0.23 | 89 | 1018.8 |
| 20260505164006 | 47 | 191 | 3.0 | 8.0 | 0.00 | 0.23 | 0.23 | 90 | 1018.6 |
| 20260505163506 | 47 | 240 | 3.0 | 8.0 | 0.00 | 0.23 | 0.23 | 91 | 1018.7 |
| 20260505163004 | 47 | 229 | 2.0 | 9.0 | 0.00 | 0.23 | 0.23 | 91 | 1018.8 |
| 20260505162504 | 47 | 233 | 3.0 | 10.0 | 0.00 | 0.23 | 0.23 | 92 | 1018.7 |
| 20260505162003 | 46 | 210 | 3.0 | 11.0 | 0.00 | 0.23 | 0.23 | 93 | 1018.7 |
| 20260505161503 | 46 | 206 | 3.0 | 11.0 | 0.00 | 0.23 | 0.23 | 92 | 1019.0 |
| 20260505161009 | 46 | 247 | 0.0 | 9.0 | 0.00 | 0.23 | 0.23 | 93 | 1019.0 |
| 20260505160506 | 46 | 262 | 2.0 | 9.0 | 0.00 | 0.23 | 0.23 | 93 | 1019.0 |
| 20260505153004 | 45 | 288 | 2.0 | 7.0 | 0.00 | 0.23 | 0.23 | 93 | 1018.8 |
| 20260505152504 | 44 | 239 | 1.0 | 9.0 | 0.00 | 0.23 | 0.23 | 93 | 1018.8 |
| 20260505152010 | 44 | 250 | 2.0 | 9.0 | 0.00 | 0.23 | 0.23 | 93 | 1018.7 |
| 20260505151508 | 44 | 214 | 2.0 | 8.0 | 0.00 | 0.23 | 0.23 | 93 | 1018.6 |
| 20260505151008 | 44 | 203 | 1.0 | 8.0 | 0.00 | 0.23 | 0.23 | 93 | 1018.8 |
| 20260505150508 | 44 | 214 | 1.0 | 7.0 | 0.00 | 0.23 | 0.23 | 93 | 1018.8 |
| 20260505140505 | 43 | 196 | 3.0 | 7.0 | 0.04 | 0.23 | 0.23 | 93 | 1018.4 |
| 20260505125002 | 43 | 260 | 1.0 | 5.0 | 0.10 | 0.17 | 0.17 | 92 | 1018.0 |
| 20260505124503 | 43 | 260 | 0.0 | 7.0 | 0.11 | 0.17 | 0.17 | 92 | 1018.1 |
| 20260505124007 | 43 | 238 | 2.0 | 6.0 | 0.12 | 0.16 | 0.16 | 91 | 1018.1 |
| 20260505123504 | 43 | 262 | 1.0 | 6.0 | 0.12 | 0.16 | 0.16 | 91 | 1018.1 |
| 20260505123002 | 43 | 260 | 1.0 | 6.0 | 0.13 | 0.16 | 0.16 | 91 | 1018.1 |
| 20260505122503 | 43 | 241 | 2.0 | 8.0 | 0.14 | 0.16 | 0.16 | 91 | 1018.1 |
| 20260505122102 | 44 | 242 | 2.0 | 9.0 | 0.13 | 0.15 | 0.15 | 91 | 1018.0 |
| 20260505121503 | 44 | 209 | 4.0 | 10.0 | 0.11 | 0.12 | 0.12 | 91 | 1018.3 |
| 20260505121003 | 45 | 231 | 2.0 | 7.0 | 0.08 | 0.09 | 0.09 | 91 | 1018.3 |
| 20260505120502 | 45 | 199 | 2.0 | 5.0 | 0.07 | 0.08 | 0.08 | 91 | 1018.3 |
| 20260505120010 | 45 | 221 | 0.0 | 5.0 | 0.07 | 0.07 | 0.07 | 91 | 1018.2 |
| 20260505115505 | 45 | 240 | 2.0 | 5.0 | 0.07 | 0.07 | 0.07 | 91 | 1018.1 |
| 20260505115002 | 45 | 260 | 0.0 | 3.0 | 0.06 | 0.06 | 0.06 | 91 | 1017.9 |
| 20260505114602 | 45 | 208 | 0.0 | 4.0 | 0.06 | 0.06 | 0.06 | 90 | 1018.0 |
| 20260505114003 | 45 | 217 | 2.0 | 4.0 | 0.04 | 0.04 | 0.04 | 90 | 1018.1 |
| 20260505113503 | 45 | 181 | 0.0 | 8.0 | 0.03 | 0.03 | 0.03 | 90 | 1018.2 |
| 20260505113112 | 45 | 207 | 1.0 | 8.0 | 0.03 | 0.03 | 0.03 | 90 | 1018.2 |
| 20260505112502 | 45 | 189 | 0.0 | 9.0 | 0.02 | 0.02 | 0.02 | 89 | 1018.0 |
| 20260505112007 | 45 | 193 | 2.0 | 11.0 | 0.01 | 0.01 | 0.01 | 89 | 1018.2 |
| 20260505111603 | 46 | 276 | 2.0 | 12.0 | 0.01 | 0.01 | 0.01 | 89 | 1018.1 |
| 20260505111010 | 46 | 127 | 3.0 | 12.0 | 0.01 | 0.01 | 0.01 | 88 | 1018.2 |
| 20260505110503 | 46 | 264 | 1.0 | 9.0 | 0.01 | 0.01 | 0.01 | 88 | 1018.2 |
| 20260505102002 | 47 | 114 | 2.0 | 8.0 | 0.00 | 0.00 | 0.00 | 83 | 1018.2 |
| 20260505101503 | 47 | 264 | 2.0 | 10.0 | 0.00 | 0.00 | 0.00 | 83 | 1018.2 |
| 20260505101006 | 47 | 170 | 3.0 | 11.0 | 0.00 | 0.00 | 0.00 | 82 | 1018.3 |
| 20260505100503 | 47 | 218 | 4.0 | 9.0 | 0.00 | 0.00 | 0.00 | 81 | 1018.2 |
| 20260505100013 | 47 | 239 | 3.0 | 11.0 | 0.00 | 0.00 | 0.00 | 81 | 1018.1 |
| 20260505095500 | 47 | 204 | 4.0 | 12.0 | 0.00 | 0.00 | 0.00 | 81 | 1018.3 |
| 20260505095001 | 47 | 237 | 5.0 | 12.0 | 0.00 | 0.00 | 0.00 | 81 | 1018.3 |
| 20260505094500 | 47 | 12 | 5.0 | 13.0 | 0.00 | 0.00 | 0.00 | 82 | 1018.1 |
| 20260505094001 | 47 | 287 | 4.0 | 13.0 | 0.00 | 0.00 | 0.00 | 82 | 1018.1 |
| 20260505093502 | 47 | 265 | 5.0 | 12.0 | 0.00 | 0.00 | 0.00 | 82 | 1018.0 |
| 20260505093019 | 47 | 214 | 4.0 | 12.0 | 0.00 | 0.00 | 0.00 | 82 | 1018.2 |
| 20260505092503 | 47 | 270 | 3.0 | 16.0 | 0.00 | 0.00 | 0.00 | 82 | 1018.1 |
| 20260505092005 | 47 | 316 | 5.0 | 19.0 | 0.00 | 0.00 | 0.00 | 81 | 1018.1 |
| 20260505091502 | 47 | 190 | 5.0 | 19.0 | 0.00 | 0.00 | 0.00 | 81 | 1018.2 |
| 20260505091002 | 47 | 221 | 5.0 | 16.0 | 0.00 | 0.00 | 0.00 | 81 | 1018.0 |
| 20260505090502 | 47 | 118 | 5.0 | 11.0 | 0.00 | 0.00 | 0.00 | 80 | 1017.8 |
| 20260505090005 | 47 | 176 | 4.0 | 10.0 | 0.00 | 0.00 | 0.00 | 80 | 1017.7 |
| 20260505085503 | 47 | 82 | 3.0 | 12.0 | 0.00 | 0.00 | 0.00 | 79 | 1018.1 |
| 20260505085003 | 47 | 204 | 3.0 | 12.0 | 0.00 | 0.00 | 0.00 | 78 | 1018.3 |
| 20260505084503 | 47 | 239 | 4.0 | 14.0 | 0.00 | 0.00 | 0.00 | 78 | 1018.3 |
| 20260505084003 | 47 | 186 | 5.0 | 14.0 | 0.00 | 0.00 | 0.00 | 78 | 1018.5 |
| 20260505083506 | 47 | 152 | 3.0 | 9.0 | 0.00 | 0.00 | 0.00 | 77 | 1018.6 |
| 20260505083003 | 47 | 216 | 3.0 | 11.0 | 0.00 | 0.00 | 0.00 | 76 | 1018.8 |
| 20260505082502 | 47 | 147 | 4.0 | 11.0 | 0.00 | 0.00 | 0.00 | 76 | 1018.9 |
| 20260505082002 | 47 | 133 | 2.0 | 11.0 | 0.00 | 0.00 | 0.00 | 75 | 1019.0 |
| 20260505081505 | 47 | 198 | 3.0 | 16.0 | 0.00 | 0.00 | 0.00 | 75 | 1019.0 |
| 20260505081002 | 47 | 201 | 5.0 | 14.0 | 0.00 | 0.00 | 0.00 | 74 | 1018.9 |
| 20260505080502 | 47 | 187 | 4.0 | 14.0 | 0.00 | 0.00 | 0.00 | 74 | 1018.9 |
| 20260505080006 | 47 | 194 | 4.0 | 10.0 | 0.00 | 0.00 | 0.00 | 73 | 1019.0 |
| 20260505075502 | 48 | 183 | 3.0 | 9.0 | 0.00 | 0.00 | 0.00 | 73 | 1019.1 |
| 20260505075000 | 48 | 139 | 3.0 | 12.0 | 0.00 | 0.00 | 0.00 | 72 | 1019.0 |
| 20260505074505 | 48 | 228 | 4.0 | 12.0 | 0.00 | 0.00 | 0.00 | 72 | 1019.0 |
| 20260505074002 | 48 | 263 | 1.0 | 10.0 | 0.00 | 0.00 | 0.00 | 72 | 1019.1 |
| 20260505073502 | 48 | 174 | 4.0 | 15.0 | 0.00 | 0.00 | 0.00 | 72 | 1019.1 |
| 20260505073003 | 48 | 206 | 1.0 | 13.0 | 0.00 | 0.00 | 0.00 | 73 | 1019.0 |
| 20260505072504 | 48 | 208 | 4.0 | 16.0 | 0.00 | 0.00 | 0.00 | 72 | 1019.0 |
| 20260505072007 | 48 | 266 | 5.0 | 16.0 | 0.00 | 0.00 | 0.00 | 73 | 1019.0 |
| 20260505071502 | 48 | 188 | 3.0 | 10.0 | 0.00 | 0.00 | 0.00 | 73 | 1019.0 |
| 20260505071002 | 48 | 120 | 3.0 | 11.0 | 0.00 | 0.00 | 0.00 | 73 | 1018.9 |
| 20260505070504 | 48 | 154 | 3.0 | 11.0 | 0.00 | 0.00 | 0.00 | 73 | 1019.0 |
| 20260505070011 | 48 | 235 | 3.0 | 11.0 | 0.00 | 0.00 | 0.00 | 74 | 1019.0 |
| 20260505065504 | 48 | 150 | 4.0 | 11.0 | 0.00 | 0.00 | 0.00 | 73 | 1019.2 |
| 20260505065005 | 49 | 112 | 5.0 | 15.0 | 0.00 | 0.00 | 0.00 | 73 | 1019.4 |
| 20260505064504 | 49 | 261 | 3.0 | 11.0 | 0.00 | 0.00 | 0.00 | 73 | 1019.5 |
| 20260505064007 | 49 | 200 | 4.0 | 10.0 | 0.00 | 0.00 | 0.00 | 72 | 1019.5 |
| 20260505063504 | 49 | 157 | 4.0 | 10.0 | 0.00 | 0.00 | 0.00 | 72 | 1019.5 |
| 20260505063005 | 49 | 116 | 3.0 | 10.0 | 0.00 | 0.00 | 0.00 | 71 | 1019.6 |
| 20260505062510 | 49 | 195 | 4.0 | 11.0 | 0.00 | 0.00 | 0.00 | 70 | 1019.4 |
| 20260505062008 | 49 | 228 | 3.0 | 11.0 | 0.00 | 0.00 | 0.00 | 68 | 1019.4 |
| 20260505061508 | 49 | 193 | 3.0 | 11.0 | 0.00 | 0.00 | 0.00 | 68 | 1019.6 |
| 20260505061006 | 49 | 192 | 3.0 | 10.0 | 0.00 | 0.00 | 0.00 | 67 | 1019.5 |
| 20260505060504 | 50 | 196 | 2.0 | 9.0 | 0.00 | 0.00 | 0.00 | 66 | 1019.6 |
| 20260505060012 | 50 | 202 | 3.0 | 9.0 | 0.00 | 0.00 | 0.00 | 66 | 1019.5 |
| 20260505055506 | 50 | 207 | 2.0 | 9.0 | 0.00 | 0.00 | 0.00 | 66 | 1019.5 |
| 20260505055005 | 50 | 222 | 2.0 | 12.0 | 0.00 | 0.00 | 0.00 | 65 | 1019.5 |
| 20260505054505 | 50 | 213 | 4.0 | 11.0 | 0.00 | 0.00 | 0.00 | 65 | 1019.4 |
| 20260505054005 | 50 | 184 | 3.0 | 11.0 | 0.00 | 0.00 | 0.00 | 64 | 1019.4 |
| 20260505053504 | 50 | 183 | 3.0 | 10.0 | 0.00 | 0.00 | 0.00 | 63 | 1019.2 |
| 20260505053004 | 50 | 181 | 2.0 | 8.0 | 0.00 | 0.00 | 0.00 | 61 | 1018.9 |
| 20260505052504 | 50 | 224 | 3.0 | 8.0 | 0.00 | 0.00 | 0.00 | 61 | 1019.1 |
| 20260505052006 | 51 | 197 | 4.0 | 13.0 | 0.00 | 0.00 | 0.00 | 59 | 1019.3 |
| 20260505051514 | 51 | 233 | 5.0 | 13.0 | 0.00 | 0.00 | 0.00 | 58 | 1019.4 |
| 20260505051005 | 51 | 156 | 4.0 | 14.0 | 0.00 | 0.00 | 0.00 | 57 | 1019.2 |
| 20260505050506 | 51 | 206 | 6.0 | 14.0 | 0.00 | 0.00 | 0.00 | 57 | 1018.9 |
| 20260505041503 | 51 | 170 | 3.0 | 12.0 | 0.00 | 0.00 | 0.00 | 53 | 1019.3 |
| 20260505041007 | 51 | 244 | 4.0 | 15.0 | 0.00 | 0.00 | 0.00 | 52 | 1019.2 |
| 20260505040505 | 52 | 156 | 3.0 | 15.0 | 0.00 | 0.00 | 0.00 | 52 | 1019.0 |
| 20260505040010 | 52 | 222 | 6.0 | 20.0 | 0.00 | 0.00 | 0.00 | 52 | 1019.2 |
| 20260505035505 | 52 | 104 | 5.0 | 20.0 | 0.00 | 0.00 | 0.00 | 51 | 1019.2 |
| 20260505035004 | 52 | 199 | 4.0 | 15.0 | 0.00 | 0.00 | 0.00 | 51 | 1018.9 |
| 20260505034504 | 52 | 240 | 7.0 | 15.0 | 0.00 | 0.00 | 0.00 | 51 | 1018.7 |
| 20260505034004 | 52 | 148 | 5.0 | 20.0 | 0.00 | 0.00 | 0.00 | 50 | 1018.4 |
| 20260505033504 | 52 | 201 | 4.0 | 16.0 | 0.00 | 0.00 | 0.00 | 50 | 1018.3 |
| 20260505033005 | 52 | 195 | 2.0 | 13.0 | 0.00 | 0.00 | 0.00 | 50 | 1018.6 |
| 20260505032505 | 52 | 196 | 6.0 | 13.0 | 0.00 | 0.00 | 0.00 | 49 | 1018.7 |
| 20260505032004 | 52 | 168 | 4.0 | 14.0 | 0.00 | 0.00 | 0.00 | 49 | 1018.6 |
| 20260505031504 | 52 | 228 | 4.0 | 14.0 | 0.00 | 0.00 | 0.00 | 49 | 1018.6 |
| 20260505031004 | 52 | 185 | 4.0 | 14.0 | 0.00 | 0.00 | 0.00 | 48 | 1018.4 |
| 20260505030504 | 52 | 257 | 4.0 | 15.0 | 0.00 | 0.00 | 0.00 | 48 | 1018.3 |
| 20260505030006 | 53 | 170 | 5.0 | 15.0 | 0.00 | 0.00 | 0.00 | 48 | 1018.4 |
| 20260505025507 | 53 | 109 | 5.0 | 21.0 | 0.00 | 0.00 | 0.00 | 47 | 1018.2 |
| 20260505025006 | 53 | 224 | 5.0 | 21.0 | 0.00 | 0.00 | 0.00 | 46 | 1018.1 |
| 20260505024509 | 53 | 183 | 4.0 | 17.0 | 0.00 | 0.00 | 0.00 | 46 | 1018.1 |
| 20260505024004 | 53 | 111 | 5.0 | 19.0 | 0.00 | 0.00 | 0.00 | 46 | 1017.9 |
| 20260505023504 | 54 | 217 | 8.0 | 19.0 | 0.00 | 0.00 | 0.00 | 45 | 1018.2 |
| 20260505023004 | 54 | 139 | 7.0 | 16.0 | 0.00 | 0.00 | 0.00 | 44 | 1018.3 |
| 20260505022504 | 54 | 81 | 4.0 | 12.0 | 0.00 | 0.00 | 0.00 | 42 | 1018.5 |
| 20260505022005 | 54 | 251 | 4.0 | 19.0 | 0.00 | 0.00 | 0.00 | 42 | 1018.4 |
| 20260505021505 | 54 | 178 | 5.0 | 19.0 | 0.00 | 0.00 | 0.00 | 41 | 1018.4 |
| 20260505021004 | 54 | 227 | 7.0 | 17.0 | 0.00 | 0.00 | 0.00 | 41 | 1018.3 |
| 20260505020505 | 54 | 200 | 6.0 | 17.0 | 0.00 | 0.00 | 0.00 | 40 | 1018.2 |
| 20260505020008 | 55 | 117 | 4.0 | 13.0 | 0.00 | 0.00 | 0.00 | 40 | 1018.2 |
| 20260505015507 | 55 | 114 | 4.0 | 17.0 | 0.00 | 0.00 | 0.00 | 39 | 1018.2 |
| 20260505015004 | 55 | 241 | 5.0 | 17.0 | 0.00 | 0.00 | 0.00 | 39 | 1018.1 |
| 20260505014505 | 55 | 78 | 6.0 | 16.0 | 0.00 | 0.00 | 0.00 | 39 | 1018.1 |
| 20260505014007 | 55 | 251 | 5.0 | 16.0 | 0.00 | 0.00 | 0.00 | 40 | 1018.1 |
| 20260505013504 | 55 | 253 | 7.0 | 14.0 | 0.00 | 0.00 | 0.00 | 40 | 1018.1 |
| 20260505013004 | 55 | 222 | 7.0 | 13.0 | 0.00 | 0.00 | 0.00 | 41 | 1017.9 |
| 20260505012504 | 55 | 266 | 5.0 | 21.0 | 0.00 | 0.00 | 0.00 | 41 | 1018.0 |
| 20260505012006 | 56 | 141 | 6.0 | 21.0 | 0.00 | 0.00 | 0.00 | 41 | 1018.0 |
| 20260505011505 | 56 | 201 | 5.0 | 17.0 | 0.00 | 0.00 | 0.00 | 41 | 1018.0 |
| 20260505011004 | 56 | 191 | 5.0 | 13.0 | 0.00 | 0.00 | 0.00 | 40 | 1018.1 |
| 20260505010508 | 56 | 276 | 5.0 | 14.0 | 0.00 | 0.00 | 0.00 | 40 | 1017.9 |
| 20260505010006 | 56 | 212 | 6.0 | 16.0 | 0.00 | 0.00 | 0.00 | 40 | 1017.7 |
| 20260505005504 | 56 | 212 | 4.0 | 16.0 | 0.00 | 0.00 | 0.00 | 40 | 1017.7 |
| 20260505005004 | 56 | 207 | 4.0 | 14.0 | 0.00 | 0.00 | 0.00 | 39 | 1017.7 |
| 20260505004508 | 57 | 272 | 5.0 | 14.0 | 0.00 | 0.00 | 0.00 | 38 | 1017.7 |
| 20260505004005 | 57 | 216 | 5.0 | 16.0 | 0.00 | 0.00 | 0.00 | 37 | 1017.8 |
| 20260505003507 | 58 | 219 | 5.0 | 18.0 | 0.00 | 0.00 | 0.00 | 35 | 1018.0 |
| 20260505003014 | 58 | 89 | 5.0 | 18.0 | 0.00 | 0.00 | 0.00 | 34 | 1018.1 |
| 20260505002504 | 58 | 222 | 4.0 | 14.0 | 0.00 | 0.00 | 0.00 | 35 | 1018.3 |
| 20260505002004 | 59 | 120 | 5.0 | 13.0 | 0.00 | 0.00 | 0.00 | 34 | 1017.9 |
| 20260505001505 | 59 | 240 | 4.0 | 19.0 | 0.00 | 0.00 | 0.00 | 35 | 1018.1 |
| 20260505001004 | 59 | 207 | 6.0 | 19.0 | 0.00 | 0.00 | 0.00 | 34 | 1017.9 |
| 20260505000504 | 60 | 232 | 8.0 | 24.0 | 0.00 | 0.00 | 0.00 | 32 | 1017.6 |
| 20260505000006 | 60 | 245 | 6.0 | 24.0 | 0.00 | 0.00 | 0.00 | 32 | 1017.8 |
| 20260504235503 | 60 | 208 | 8.0 | 23.0 | 0.00 | 0.00 | 0.00 | 32 | 1017.6 |
| 20260504235005 | 60 | 97 | 9.0 | 23.0 | 0.00 | 0.00 | 0.00 | 31 | 1017.1 |
| 20260504234504 | 60 | 201 | 6.0 | 26.0 | 0.00 | 0.00 | 0.00 | 32 | 1017.2 |
| 20260504234003 | 61 | 147 | 8.0 | 26.0 | 0.00 | 0.00 | 0.00 | 31 | 1017.4 |
| 20260504233503 | 61 | 231 | 8.0 | 17.0 | 0.00 | 0.00 | 0.00 | 31 | 1017.6 |
| 20260504233003 | 61 | 218 | 9.0 | 19.0 | 0.00 | 0.00 | 0.00 | 31 | 1017.5 |
| 20260504232502 | 61 | 204 | 10.0 | 25.0 | 0.00 | 0.00 | 0.00 | 31 | 1017.1 |
| 20260504232002 | 62 | 120 | 8.0 | 19.0 | 0.00 | 0.00 | 0.00 | 30 | 1017.1 |
| 20260504231504 | 62 | 228 | 7.0 | 18.0 | 0.00 | 0.00 | 0.00 | 29 | 1017.4 |
| 20260504231005 | 62 | 201 | 5.0 | 18.0 | 0.00 | 0.00 | 0.00 | 30 | 1017.4 |
| 20260504230504 | 62 | 218 | 8.0 | 19.0 | 0.00 | 0.00 | 0.00 | 29 | 1017.4 |
| 20260504230005 | 63 | 241 | 7.0 | 25.0 | 0.00 | 0.00 | 0.00 | 28 | 1017.5 |
| 20260504225506 | 63 | 190 | 8.0 | 25.0 | 0.00 | 0.00 | 0.00 | 28 | 1017.6 |
| 20260504225003 | 63 | 183 | 7.0 | 23.0 | 0.00 | 0.00 | 0.00 | 28 | 1017.8 |
| 20260504224503 | 63 | 204 | 8.0 | 18.0 | 0.00 | 0.00 | 0.00 | 28 | 1017.8 |
| 20260504224003 | 64 | 174 | 8.0 | 20.0 | 0.00 | 0.00 | 0.00 | 27 | 1017.7 |
| 20260504223503 | 64 | 199 | 10.0 | 20.0 | 0.00 | 0.00 | 0.00 | 27 | 1017.6 |
| 20260504223003 | 65 | 113 | 7.0 | 17.0 | 0.00 | 0.00 | 0.00 | 27 | 1017.8 |
| 20260504222504 | 65 | 180 | 6.0 | 18.0 | 0.00 | 0.00 | 0.00 | 27 | 1017.7 |
| 20260504222003 | 65 | 249 | 6.0 | 25.0 | 0.00 | 0.00 | 0.00 | 26 | 1017.8 |
| 20260504221503 | 64 | 235 | 9.0 | 25.0 | 0.00 | 0.00 | 0.00 | 26 | 1017.7 |
| 20260504221004 | 65 | 199 | 5.0 | 16.0 | 0.00 | 0.00 | 0.00 | 27 | 1017.9 |
| 20260504220504 | 65 | 208 | 7.0 | 17.0 | 0.00 | 0.00 | 0.00 | 26 | 1018.0 |
| 20260504220005 | 65 | 197 | 7.0 | 17.0 | 0.00 | 0.00 | 0.00 | 26 | 1017.7 |
| 20260504215503 | 67 | 121 | 6.0 | 17.0 | 0.00 | 0.00 | 0.00 | 25 | 1017.7 |
| 20260504215007 | 67 | 206 | 6.0 | 15.0 | 0.00 | 0.00 | 0.00 | 25 | 1017.7 |
| 20260504214502 | 68 | 237 | 6.0 | 15.0 | 0.00 | 0.00 | 0.00 | 24 | 1017.8 |
| 20260504214003 | 68 | 212 | 4.0 | 15.0 | 0.00 | 0.00 | 0.00 | 23 | 1017.9 |
| 20260504213503 | 68 | 133 | 5.0 | 21.0 | 0.00 | 0.00 | 0.00 | 23 | 1018.0 |
| 20260504213004 | 67 | 199 | 7.0 | 21.0 | 0.00 | 0.00 | 0.00 | 25 | 1017.7 |
| 20260504212503 | 67 | 214 | 7.0 | 16.0 | 0.00 | 0.00 | 0.00 | 24 | 1017.9 |
| 20260504212004 | 67 | 18 | 6.0 | 16.0 | 0.00 | 0.00 | 0.00 | 24 | 1018.0 |
| 20260504211502 | 65 | 237 | 9.0 | 25.0 | 0.00 | 0.00 | 0.00 | 25 | 1017.8 |
| 20260504211003 | 65 | 229 | 9.0 | 25.0 | 0.00 | 0.00 | 0.00 | 24 | 1017.7 |
| 20260504210504 | 64 | 137 | 6.0 | 21.0 | 0.00 | 0.00 | 0.00 | 25 | 1017.7 |
| 20260504210005 | 63 | 157 | 7.0 | 21.0 | 0.00 | 0.00 | 0.00 | 25 | 1017.8 |
| 20260504205506 | 63 | 260 | 8.0 | 19.0 | 0.00 | 0.00 | 0.00 | 25 | 1017.6 |
| 20260504205002 | 64 | 209 | 7.0 | 19.0 | 0.00 | 0.00 | 0.00 | 24 | 1017.8 |
| 20260504204503 | 64 | 203 | 5.0 | 17.0 | 0.00 | 0.00 | 0.00 | 26 | 1017.8 |
| 20260504204003 | 65 | 278 | 7.0 | 17.0 | 0.00 | 0.00 | 0.00 | 26 | 1017.7 |
| 20260504203506 | 65 | 222 | 6.0 | 24.0 | 0.00 | 0.00 | 0.00 | 23 | 1017.6 |
| 20260504203003 | 65 | 198 | 9.0 | 24.0 | 0.00 | 0.00 | 0.00 | 22 | 1017.5 |
| 20260504202503 | 64 | 155 | 4.0 | 20.0 | 0.00 | 0.00 | 0.00 | 26 | 1017.5 |
| 20260504202002 | 63 | 270 | 6.0 | 20.0 | 0.00 | 0.00 | 0.00 | 27 | 1017.5 |
| 20260504201504 | 64 | 203 | 9.0 | 20.0 | 0.00 | 0.00 | 0.00 | 25 | 1017.5 |
| 20260504201005 | 64 | 277 | 5.0 | 18.0 | 0.00 | 0.00 | 0.00 | 28 | 1017.7 |
| 20260504200503 | 64 | 182 | 6.0 | 17.0 | 0.00 | 0.00 | 0.00 | 28 | 1017.5 |
| 20260504200006 | 63 | 220 | 5.0 | 21.0 | 0.00 | 0.00 | 0.00 | 29 | 1017.7 |
| 20260504195506 | 62 | 214 | 7.0 | 18.0 | 0.00 | 0.00 | 0.00 | 31 | 1017.6 |
| 20260504195004 | 62 | 131 | 7.0 | 24.0 | 0.00 | 0.00 | 0.00 | 30 | 1017.7 |
| 20260504194505 | 62 | 200 | 8.0 | 23.0 | 0.00 | 0.00 | 0.00 | 30 | 1017.7 |
| 20260504194004 | 62 | 245 | 4.0 | 17.0 | 0.00 | 0.00 | 0.00 | 29 | 1017.6 |